sensor_id;sensor_type;location;lat;lon;timestamp;P1;durP1;ratioP1;P2;durP2;ratioP2
55455;SDS011;63021;52.836;6.376;2022-08-21T00:01:39;7.90;;;2.87;;
55455;SDS011;63021;52.836;6.376;2022-08-21T00:04:11;5.75;;;2.90;;
55455;SDS011;63021;52.836;6.376;2022-08-21T00:06:40;6.72;;;3.80;;
55455;SDS011;63021;52.836;6.376;2022-08-21T00:09:14;7.90;;;3.67;;
55455;SDS011;63021;52.836;6.376;2022-08-21T00:11:41;6.32;;;3.67;;
55455;SDS011;63021;52.836;6.376;2022-08-21T00:14:08;5.88;;;3.00;;
55455;SDS011;63021;52.836;6.376;2022-08-21T00:16:49;5.30;;;3.35;;
55455;SDS011;63021;52.836;6.376;2022-08-21T00:19:23;6.75;;;3.65;;
55455;SDS011;63021;52.836;6.376;2022-08-21T00:21:56;6.22;;;3.97;;
55455;SDS011;63021;52.836;6.376;2022-08-21T00:24:23;9.57;;;3.50;;
55455;SDS011;63021;52.836;6.376;2022-08-21T00:26:53;6.53;;;3.78;;
55455;SDS011;63021;52.836;6.376;2022-08-21T00:29:22;7.90;;;3.42;;
55455;SDS011;63021;52.836;6.376;2022-08-21T00:31:54;7.07;;;3.63;;
55455;SDS011;63021;52.836;6.376;2022-08-21T00:37:00;10.48;;;4.07;;
55455;SDS011;63021;52.836;6.376;2022-08-21T00:39:31;7.28;;;4.43;;
55455;SDS011;63021;52.836;6.376;2022-08-21T00:42:03;7.47;;;4.45;;
55455;SDS011;63021;52.836;6.376;2022-08-21T00:44:29;8.90;;;4.60;;
55455;SDS011;63021;52.836;6.376;2022-08-21T00:47:01;10.65;;;4.78;;
55455;SDS011;63021;52.836;6.376;2022-08-21T00:49:29;11.30;;;5.50;;
55455;SDS011;63021;52.836;6.376;2022-08-21T00:52:03;14.63;;;5.70;;
55455;SDS011;63021;52.836;6.376;2022-08-21T00:54:34;12.43;;;7.32;;
55455;SDS011;63021;52.836;6.376;2022-08-21T01:00:06;8.00;;;5.15;;
55455;SDS011;63021;52.836;6.376;2022-08-21T01:02:43;7.68;;;5.40;;
55455;SDS011;63021;52.836;6.376;2022-08-21T01:05:23;9.07;;;6.10;;
55455;SDS011;63021;52.836;6.376;2022-08-21T01:07:54;11.23;;;5.78;;
55455;SDS011;63021;52.836;6.376;2022-08-21T01:10:26;10.30;;;5.47;;
55455;SDS011;63021;52.836;6.376;2022-08-21T01:12:52;10.65;;;5.60;;
55455;SDS011;63021;52.836;6.376;2022-08-21T01:15:23;12.15;;;6.05;;
55455;SDS011;63021;52.836;6.376;2022-08-21T01:17:54;10.93;;;5.43;;
55455;SDS011;63021;52.836;6.376;2022-08-21T01:20:23;9.23;;;6.15;;
55455;SDS011;63021;52.836;6.376;2022-08-21T01:22:54;9.70;;;5.97;;
55455;SDS011;63021;52.836;6.376;2022-08-21T01:25:23;8.93;;;6.28;;
55455;SDS011;63021;52.836;6.376;2022-08-21T01:27:56;8.82;;;5.93;;
55455;SDS011;63021;52.836;6.376;2022-08-21T01:30:28;8.82;;;5.68;;
55455;SDS011;63021;52.836;6.376;2022-08-21T01:32:54;9.70;;;5.93;;
55455;SDS011;63021;52.836;6.376;2022-08-21T01:35:28;10.88;;;5.60;;
55455;SDS011;63021;52.836;6.376;2022-08-21T01:41:01;9.50;;;5.70;;
55455;SDS011;63021;52.836;6.376;2022-08-21T01:43:29;9.65;;;5.72;;
55455;SDS011;63021;52.836;6.376;2022-08-21T01:46:01;10.55;;;6.15;;
55455;SDS011;63021;52.836;6.376;2022-08-21T01:48:31;8.75;;;5.55;;
55455;SDS011;63021;52.836;6.376;2022-08-21T01:50:59;8.02;;;5.88;;
55455;SDS011;63021;52.836;6.376;2022-08-21T01:53:29;11.52;;;6.22;;
55455;SDS011;63021;52.836;6.376;2022-08-21T01:56:01;6.53;;;5.25;;
55455;SDS011;63021;52.836;6.376;2022-08-21T01:58:29;10.40;;;6.00;;
55455;SDS011;63021;52.836;6.376;2022-08-21T02:01:22;10.43;;;5.63;;
55455;SDS011;63021;52.836;6.376;2022-08-21T02:03:51;10.50;;;6.57;;
55455;SDS011;63021;52.836;6.376;2022-08-21T02:06:22;10.15;;;5.68;;
55455;SDS011;63021;52.836;6.376;2022-08-21T02:08:51;11.02;;;6.47;;
55455;SDS011;63021;52.836;6.376;2022-08-21T02:11:20;9.55;;;5.75;;
55455;SDS011;63021;52.836;6.376;2022-08-21T02:13:49;10.55;;;5.70;;
55455;SDS011;63021;52.836;6.376;2022-08-21T02:16:16;9.85;;;5.63;;
55455;SDS011;63021;52.836;6.376;2022-08-21T02:18:42;8.27;;;5.55;;
55455;SDS011;63021;52.836;6.376;2022-08-21T02:21:13;8.25;;;5.82;;
55455;SDS011;63021;52.836;6.376;2022-08-21T02:23:40;6.45;;;5.82;;
55455;SDS011;63021;52.836;6.376;2022-08-21T02:26:12;13.82;;;6.22;;
55455;SDS011;63021;52.836;6.376;2022-08-21T02:28:45;9.15;;;5.57;;
55455;SDS011;63021;52.836;6.376;2022-08-21T02:31:14;7.80;;;5.85;;
55455;SDS011;63021;52.836;6.376;2022-08-21T02:33:43;8.77;;;5.63;;
55455;SDS011;63021;52.836;6.376;2022-08-21T02:36:14;11.02;;;5.72;;
55455;SDS011;63021;52.836;6.376;2022-08-21T02:38:45;12.13;;;6.35;;
55455;SDS011;63021;52.836;6.376;2022-08-21T02:41:17;7.32;;;5.70;;
55455;SDS011;63021;52.836;6.376;2022-08-21T02:43:47;8.40;;;5.90;;
55455;SDS011;63021;52.836;6.376;2022-08-21T02:46:20;10.23;;;6.10;;
55455;SDS011;63021;52.836;6.376;2022-08-21T02:48:51;8.57;;;5.40;;
55455;SDS011;63021;52.836;6.376;2022-08-21T02:51:19;6.03;;;5.28;;
55455;SDS011;63021;52.836;6.376;2022-08-21T02:53:48;9.20;;;5.20;;
55455;SDS011;63021;52.836;6.376;2022-08-21T02:56:16;9.32;;;5.22;;
55455;SDS011;63021;52.836;6.376;2022-08-21T02:58:48;7.57;;;5.35;;
55455;SDS011;63021;52.836;6.376;2022-08-21T03:01:20;7.53;;;4.85;;
55455;SDS011;63021;52.836;6.376;2022-08-21T03:03:49;7.88;;;5.15;;
55455;SDS011;63021;52.836;6.376;2022-08-21T03:06:20;8.10;;;5.50;;
55455;SDS011;63021;52.836;6.376;2022-08-21T03:08:50;8.75;;;4.93;;
55455;SDS011;63021;52.836;6.376;2022-08-21T03:11:20;7.65;;;4.85;;
55455;SDS011;63021;52.836;6.376;2022-08-21T03:13:50;8.15;;;5.45;;
55455;SDS011;63021;52.836;6.376;2022-08-21T03:16:18;10.68;;;5.18;;
55455;SDS011;63021;52.836;6.376;2022-08-21T03:18:49;9.35;;;5.43;;
55455;SDS011;63021;52.836;6.376;2022-08-21T03:21:18;6.45;;;5.13;;
55455;SDS011;63021;52.836;6.376;2022-08-21T03:23:50;9.63;;;5.47;;
55455;SDS011;63021;52.836;6.376;2022-08-21T03:26:22;9.38;;;5.32;;
55455;SDS011;63021;52.836;6.376;2022-08-21T03:28:53;8.40;;;5.78;;
55455;SDS011;63021;52.836;6.376;2022-08-21T03:31:23;11.85;;;7.25;;
55455;SDS011;63021;52.836;6.376;2022-08-21T03:33:52;10.40;;;5.50;;
55455;SDS011;63021;52.836;6.376;2022-08-21T03:36:22;10.38;;;5.88;;
55455;SDS011;63021;52.836;6.376;2022-08-21T03:38:49;9.70;;;6.07;;
55455;SDS011;63021;52.836;6.376;2022-08-21T03:44:23;7.55;;;6.05;;
55455;SDS011;63021;52.836;6.376;2022-08-21T03:46:55;6.22;;;5.25;;
55455;SDS011;63021;52.836;6.376;2022-08-21T03:49:22;9.32;;;6.03;;
55455;SDS011;63021;52.836;6.376;2022-08-21T03:51:52;7.93;;;5.93;;
55455;SDS011;63021;52.836;6.376;2022-08-21T03:54:22;7.53;;;5.55;;
55455;SDS011;63021;52.836;6.376;2022-08-21T03:56:52;10.60;;;6.43;;
55455;SDS011;63021;52.836;6.376;2022-08-21T03:59:18;11.65;;;7.38;;
55455;SDS011;63021;52.836;6.376;2022-08-21T04:05:18;7.60;;;6.13;;
55455;SDS011;63021;52.836;6.376;2022-08-21T04:07:55;10.18;;;5.95;;
55455;SDS011;63021;52.836;6.376;2022-08-21T04:10:39;8.32;;;5.90;;
55455;SDS011;63021;52.836;6.376;2022-08-21T04:13:09;15.68;;;7.45;;
55455;SDS011;63021;52.836;6.376;2022-08-21T04:15:40;8.07;;;6.63;;
55455;SDS011;63021;52.836;6.376;2022-08-21T04:18:11;11.50;;;5.90;;
55455;SDS011;63021;52.836;6.376;2022-08-21T04:20:44;9.85;;;6.75;;
55455;SDS011;63021;52.836;6.376;2022-08-21T04:23:19;12.65;;;6.95;;
55455;SDS011;63021;52.836;6.376;2022-08-21T04:25:47;11.75;;;6.28;;
55455;SDS011;63021;52.836;6.376;2022-08-21T04:28:16;9.00;;;6.78;;
55455;SDS011;63021;52.836;6.376;2022-08-21T04:30:48;12.20;;;6.75;;
55455;SDS011;63021;52.836;6.376;2022-08-21T04:33:19;12.60;;;7.00;;
55455;SDS011;63021;52.836;6.376;2022-08-21T04:35:50;8.30;;;6.38;;
55455;SDS011;63021;52.836;6.376;2022-08-21T04:38:19;14.52;;;7.40;;
55455;SDS011;63021;52.836;6.376;2022-08-21T04:40:48;6.70;;;5.60;;
55455;SDS011;63021;52.836;6.376;2022-08-21T04:43:18;9.88;;;5.88;;
55455;SDS011;63021;52.836;6.376;2022-08-21T04:45:48;12.85;;;6.10;;
55455;SDS011;63021;52.836;6.376;2022-08-21T04:48:17;7.35;;;6.05;;
55455;SDS011;63021;52.836;6.376;2022-08-21T04:51:03;11.02;;;6.45;;
55455;SDS011;63021;52.836;6.376;2022-08-21T04:53:51;11.00;;;6.07;;
55455;SDS011;63021;52.836;6.376;2022-08-21T04:59:04;6.75;;;6.13;;
55455;SDS011;63021;52.836;6.376;2022-08-21T05:01:38;7.20;;;5.30;;
55455;SDS011;63021;52.836;6.376;2022-08-21T05:04:12;9.15;;;6.13;;
55455;SDS011;63021;52.836;6.376;2022-08-21T05:06:42;12.40;;;5.80;;
55455;SDS011;63021;52.836;6.376;2022-08-21T05:09:12;11.70;;;6.38;;
55455;SDS011;63021;52.836;6.376;2022-08-21T05:11:47;12.50;;;6.85;;
55455;SDS011;63021;52.836;6.376;2022-08-21T05:14:18;10.15;;;6.30;;
55455;SDS011;63021;52.836;6.376;2022-08-21T05:16:52;7.82;;;5.95;;
55455;SDS011;63021;52.836;6.376;2022-08-21T05:19:21;12.10;;;6.18;;
55455;SDS011;63021;52.836;6.376;2022-08-21T05:21:52;11.48;;;6.20;;
55455;SDS011;63021;52.836;6.376;2022-08-21T05:24:26;10.30;;;6.20;;
55455;SDS011;63021;52.836;6.376;2022-08-21T05:26:53;9.48;;;6.55;;
55455;SDS011;63021;52.836;6.376;2022-08-21T05:29:27;9.15;;;5.72;;
55455;SDS011;63021;52.836;6.376;2022-08-21T05:32:01;10.25;;;6.18;;
55455;SDS011;63021;52.836;6.376;2022-08-21T05:34:36;8.23;;;5.53;;
55455;SDS011;63021;52.836;6.376;2022-08-21T05:37:15;6.35;;;5.10;;
55455;SDS011;63021;52.836;6.376;2022-08-21T05:39:48;9.77;;;6.50;;
55455;SDS011;63021;52.836;6.376;2022-08-21T05:42:18;9.27;;;6.10;;
55455;SDS011;63021;52.836;6.376;2022-08-21T05:44:43;13.20;;;5.93;;
55455;SDS011;63021;52.836;6.376;2022-08-21T05:50:05;13.90;;;6.00;;
55455;SDS011;63021;52.836;6.376;2022-08-21T05:52:32;10.05;;;5.82;;
55455;SDS011;63021;52.836;6.376;2022-08-21T05:55:02;9.73;;;5.43;;
55455;SDS011;63021;52.836;6.376;2022-08-21T05:57:35;8.05;;;5.78;;
55455;SDS011;63021;52.836;6.376;2022-08-21T06:00:08;11.35;;;6.43;;
55455;SDS011;63021;52.836;6.376;2022-08-21T06:02:39;13.70;;;6.45;;
55455;SDS011;63021;52.836;6.376;2022-08-21T06:05:08;11.10;;;5.38;;
55455;SDS011;63021;52.836;6.376;2022-08-21T06:07:45;12.07;;;5.45;;
55455;SDS011;63021;52.836;6.376;2022-08-21T06:10:16;11.93;;;6.65;;
55455;SDS011;63021;52.836;6.376;2022-08-21T06:12:46;12.02;;;5.78;;
55455;SDS011;63021;52.836;6.376;2022-08-21T06:15:22;10.40;;;6.00;;
55455;SDS011;63021;52.836;6.376;2022-08-21T06:17:48;13.30;;;5.30;;
55455;SDS011;63021;52.836;6.376;2022-08-21T06:20:23;7.82;;;5.10;;
55455;SDS011;63021;52.836;6.376;2022-08-21T06:22:52;13.98;;;5.68;;
55455;SDS011;63021;52.836;6.376;2022-08-21T06:25:24;12.52;;;5.95;;
55455;SDS011;63021;52.836;6.376;2022-08-21T06:31:20;13.32;;;5.32;;
55455;SDS011;63021;52.836;6.376;2022-08-21T06:33:49;11.80;;;5.47;;
55455;SDS011;63021;52.836;6.376;2022-08-21T06:36:17;9.23;;;5.13;;
55455;SDS011;63021;52.836;6.376;2022-08-21T06:38:50;10.63;;;4.45;;
55455;SDS011;63021;52.836;6.376;2022-08-21T06:41:26;9.77;;;4.57;;
55455;SDS011;63021;52.836;6.376;2022-08-21T06:43:52;9.07;;;4.82;;
55455;SDS011;63021;52.836;6.376;2022-08-21T06:46:21;18.77;;;5.38;;
55455;SDS011;63021;52.836;6.376;2022-08-21T06:48:52;13.77;;;4.95;;
55455;SDS011;63021;52.836;6.376;2022-08-21T06:51:41;7.40;;;4.32;;
55455;SDS011;63021;52.836;6.376;2022-08-21T06:54:09;7.30;;;4.38;;
55455;SDS011;63021;52.836;6.376;2022-08-21T06:56:39;8.68;;;4.68;;
55455;SDS011;63021;52.836;6.376;2022-08-21T06:59:05;15.00;;;4.90;;
55455;SDS011;63021;52.836;6.376;2022-08-21T07:01:37;11.05;;;5.43;;
55455;SDS011;63021;52.836;6.376;2022-08-21T07:04:08;8.93;;;5.25;;
55455;SDS011;63021;52.836;6.376;2022-08-21T07:06:38;13.13;;;3.90;;
55455;SDS011;63021;52.836;6.376;2022-08-21T07:09:04;7.38;;;3.75;;
55455;SDS011;63021;52.836;6.376;2022-08-21T07:11:36;10.57;;;3.55;;
55455;SDS011;63021;52.836;6.376;2022-08-21T07:14:05;10.27;;;3.30;;
55455;SDS011;63021;52.836;6.376;2022-08-21T07:16:43;11.30;;;3.97;;
55455;SDS011;63021;52.836;6.376;2022-08-21T07:19:20;7.97;;;3.47;;
55455;SDS011;63021;52.836;6.376;2022-08-21T07:21:49;7.68;;;3.60;;
55455;SDS011;63021;52.836;6.376;2022-08-21T07:24:23;8.57;;;4.22;;
55455;SDS011;63021;52.836;6.376;2022-08-21T07:26:49;10.90;;;5.50;;
55455;SDS011;63021;52.836;6.376;2022-08-21T07:29:15;9.20;;;3.55;;
55455;SDS011;63021;52.836;6.376;2022-08-21T07:31:42;9.35;;;3.95;;
55455;SDS011;63021;52.836;6.376;2022-08-21T07:34:10;7.60;;;5.03;;
55455;SDS011;63021;52.836;6.376;2022-08-21T07:36:35;7.68;;;3.17;;
55455;SDS011;63021;52.836;6.376;2022-08-21T07:39:03;6.75;;;3.53;;
55455;SDS011;63021;52.836;6.376;2022-08-21T07:41:32;11.80;;;3.63;;
55455;SDS011;63021;52.836;6.376;2022-08-21T07:44:05;5.82;;;2.90;;
55455;SDS011;63021;52.836;6.376;2022-08-21T07:46:39;6.65;;;2.58;;
55455;SDS011;63021;52.836;6.376;2022-08-21T07:49:09;11.50;;;3.47;;
55455;SDS011;63021;52.836;6.376;2022-08-21T07:51:46;9.10;;;2.90;;
55455;SDS011;63021;52.836;6.376;2022-08-21T07:54:16;14.65;;;3.83;;
55455;SDS011;63021;52.836;6.376;2022-08-21T07:56:42;10.52;;;2.70;;
55455;SDS011;63021;52.836;6.376;2022-08-21T07:59:10;10.57;;;3.55;;
55455;SDS011;63021;52.836;6.376;2022-08-21T08:01:39;6.10;;;2.58;;
55455;SDS011;63021;52.836;6.376;2022-08-21T08:04:08;12.95;;;4.53;;
55455;SDS011;63021;52.836;6.376;2022-08-21T08:06:35;9.90;;;3.50;;
55455;SDS011;63021;52.836;6.376;2022-08-21T08:11:43;8.20;;;2.67;;
55455;SDS011;63021;52.836;6.376;2022-08-21T08:14:18;6.70;;;2.80;;
55455;SDS011;63021;52.836;6.376;2022-08-21T08:19:13;6.43;;;1.85;;
55455;SDS011;63021;52.836;6.376;2022-08-21T08:21:41;6.15;;;2.13;;
55455;SDS011;63021;52.836;6.376;2022-08-21T08:24:11;8.40;;;1.95;;
55455;SDS011;63021;52.836;6.376;2022-08-21T08:26:39;4.28;;;1.67;;
55455;SDS011;63021;52.836;6.376;2022-08-21T08:29:08;7.93;;;1.75;;
55455;SDS011;63021;52.836;6.376;2022-08-21T08:31:41;6.05;;;1.38;;
55455;SDS011;63021;52.836;6.376;2022-08-21T08:37:24;5.20;;;1.70;;
55455;SDS011;63021;52.836;6.376;2022-08-21T08:39:54;7.10;;;2.25;;
55455;SDS011;63021;52.836;6.376;2022-08-21T08:42:26;6.10;;;1.73;;
55455;SDS011;63021;52.836;6.376;2022-08-21T08:45:08;12.23;;;1.98;;
55455;SDS011;63021;52.836;6.376;2022-08-21T08:47:40;9.20;;;2.08;;
55455;SDS011;63021;52.836;6.376;2022-08-21T08:52:59;6.10;;;2.03;;
55455;SDS011;63021;52.836;6.376;2022-08-21T08:55:35;6.93;;;2.13;;
55455;SDS011;63021;52.836;6.376;2022-08-21T08:58:07;6.45;;;1.75;;
55455;SDS011;63021;52.836;6.376;2022-08-21T09:00:39;14.10;;;2.50;;
55455;SDS011;63021;52.836;6.376;2022-08-21T09:03:11;6.85;;;1.90;;
55455;SDS011;63021;52.836;6.376;2022-08-21T09:06:01;11.25;;;2.80;;
55455;SDS011;63021;52.836;6.376;2022-08-21T09:25:28;9.85;;;2.10;;
55455;SDS011;63021;52.836;6.376;2022-08-21T09:27:58;7.00;;;2.75;;
55455;SDS011;63021;52.836;6.376;2022-08-21T09:30:31;9.95;;;1.75;;
55455;SDS011;63021;52.836;6.376;2022-08-21T09:33:03;8.25;;;2.35;;
55455;SDS011;63021;52.836;6.376;2022-08-21T09:35:34;7.93;;;2.33;;
55455;SDS011;63021;52.836;6.376;2022-08-21T09:38:05;10.02;;;2.70;;
55455;SDS011;63021;52.836;6.376;2022-08-21T09:40:39;9.05;;;2.08;;
55455;SDS011;63021;52.836;6.376;2022-08-21T09:45:47;11.55;;;2.45;;
55455;SDS011;63021;52.836;6.376;2022-08-21T09:48:37;17.17;;;3.10;;
55455;SDS011;63021;52.836;6.376;2022-08-21T09:51:09;12.88;;;2.75;;
55455;SDS011;63021;52.836;6.376;2022-08-21T09:53:44;7.18;;;2.08;;
55455;SDS011;63021;52.836;6.376;2022-08-21T09:56:24;11.23;;;2.10;;
55455;SDS011;63021;52.836;6.376;2022-08-21T10:01:51;10.45;;;2.25;;
55455;SDS011;63021;52.836;6.376;2022-08-21T10:04:23;10.23;;;2.63;;
55455;SDS011;63021;52.836;6.376;2022-08-21T10:06:53;6.88;;;1.98;;
55455;SDS011;63021;52.836;6.376;2022-08-21T10:09:19;9.27;;;2.47;;
55455;SDS011;63021;52.836;6.376;2022-08-21T10:11:49;7.63;;;2.55;;
55455;SDS011;63021;52.836;6.376;2022-08-21T10:23:07;6.70;;;2.47;;
55455;SDS011;63021;52.836;6.376;2022-08-21T10:25:52;7.22;;;2.42;;
55455;SDS011;63021;52.836;6.376;2022-08-21T10:28:44;5.95;;;1.90;;
55455;SDS011;63021;52.836;6.376;2022-08-21T10:31:15;6.72;;;1.75;;
55455;SDS011;63021;52.836;6.376;2022-08-21T10:34:00;7.72;;;1.83;;
55455;SDS011;63021;52.836;6.376;2022-08-21T10:40:12;9.93;;;2.38;;
55455;SDS011;63021;52.836;6.376;2022-08-21T10:42:49;13.63;;;2.95;;
55455;SDS011;63021;52.836;6.376;2022-08-21T10:45:37;9.00;;;2.25;;
55455;SDS011;63021;52.836;6.376;2022-08-21T10:48:19;6.18;;;1.63;;
55455;SDS011;63021;52.836;6.376;2022-08-21T10:51:11;10.10;;;2.50;;
55455;SDS011;63021;52.836;6.376;2022-08-21T10:53:58;7.65;;;2.50;;
55455;SDS011;63021;52.836;6.376;2022-08-21T10:56:29;6.50;;;2.10;;
55455;SDS011;63021;52.836;6.376;2022-08-21T11:02:13;10.68;;;1.92;;
55455;SDS011;63021;52.836;6.376;2022-08-21T11:04:52;9.00;;;2.05;;
55455;SDS011;63021;52.836;6.376;2022-08-21T11:07:37;4.55;;;2.10;;
55455;SDS011;63021;52.836;6.376;2022-08-21T11:18:55;5.68;;;1.80;;
55455;SDS011;63021;52.836;6.376;2022-08-21T11:21:36;9.10;;;2.05;;
55455;SDS011;63021;52.836;6.376;2022-08-21T11:26:44;8.18;;;2.00;;
55455;SDS011;63021;52.836;6.376;2022-08-21T11:29:23;5.43;;;1.98;;
55455;SDS011;63021;52.836;6.376;2022-08-21T11:47:12;7.93;;;2.50;;
55455;SDS011;63021;52.836;6.376;2022-08-21T11:49:57;4.53;;;1.90;;
55455;SDS011;63021;52.836;6.376;2022-08-21T11:52:51;6.55;;;2.08;;
55455;SDS011;63021;52.836;6.376;2022-08-21T11:58:30;6.90;;;1.80;;
55455;SDS011;63021;52.836;6.376;2022-08-21T12:01:03;5.60;;;2.22;;
55455;SDS011;63021;52.836;6.376;2022-08-21T12:03:36;6.90;;;2.03;;
55455;SDS011;63021;52.836;6.376;2022-08-21T12:06:27;4.72;;;1.65;;
55455;SDS011;63021;52.836;6.376;2022-08-21T12:09:03;7.50;;;1.95;;
55455;SDS011;63021;52.836;6.376;2022-08-21T12:11:48;13.88;;;2.33;;
55455;SDS011;63021;52.836;6.376;2022-08-21T12:14:39;11.25;;;2.15;;
55455;SDS011;63021;52.836;6.376;2022-08-21T12:17:17;6.43;;;1.63;;
55455;SDS011;63021;52.836;6.376;2022-08-21T12:19:56;6.72;;;2.05;;
55455;SDS011;63021;52.836;6.376;2022-08-21T12:22:47;7.15;;;2.00;;
55455;SDS011;63021;52.836;6.376;2022-08-21T12:25:48;4.65;;;1.88;;
55455;SDS011;63021;52.836;6.376;2022-08-21T12:31:03;6.93;;;1.67;;
55455;SDS011;63021;52.836;6.376;2022-08-21T12:33:53;12.45;;;2.85;;
55455;SDS011;63021;52.836;6.376;2022-08-21T12:36:24;6.95;;;1.90;;
55455;SDS011;63021;52.836;6.376;2022-08-21T12:39:04;7.18;;;1.95;;
55455;SDS011;63021;52.836;6.376;2022-08-21T12:45:03;6.80;;;1.77;;
55455;SDS011;63021;52.836;6.376;2022-08-21T12:47:43;6.63;;;2.03;;
55455;SDS011;63021;52.836;6.376;2022-08-21T12:50:21;7.75;;;2.10;;
55455;SDS011;63021;52.836;6.376;2022-08-21T12:53:19;4.43;;;1.50;;
55455;SDS011;63021;52.836;6.376;2022-08-21T12:56:00;11.07;;;2.85;;
55455;SDS011;63021;52.836;6.376;2022-08-21T12:58:34;9.55;;;3.03;;
55455;SDS011;63021;52.836;6.376;2022-08-21T13:01:14;7.75;;;1.77;;
55455;SDS011;63021;52.836;6.376;2022-08-21T13:07:34;7.65;;;2.20;;
55455;SDS011;63021;52.836;6.376;2022-08-21T13:12:59;5.95;;;1.95;;
55455;SDS011;63021;52.836;6.376;2022-08-21T13:15:34;8.10;;;2.13;;
55455;SDS011;63021;52.836;6.376;2022-08-21T13:18:04;5.82;;;1.92;;
55455;SDS011;63021;52.836;6.376;2022-08-21T13:20:39;5.43;;;2.05;;
55455;SDS011;63021;52.836;6.376;2022-08-21T13:23:26;12.63;;;2.15;;
55455;SDS011;63021;52.836;6.376;2022-08-21T13:25:56;7.57;;;1.70;;
55455;SDS011;63021;52.836;6.376;2022-08-21T13:28:32;7.85;;;2.00;;
55455;SDS011;63021;52.836;6.376;2022-08-21T13:31:05;12.68;;;1.80;;
55455;SDS011;63021;52.836;6.376;2022-08-21T13:36:23;8.57;;;1.77;;
55455;SDS011;63021;52.836;6.376;2022-08-21T13:38:57;7.05;;;2.50;;
55455;SDS011;63021;52.836;6.376;2022-08-21T13:41:30;7.43;;;1.60;;
55455;SDS011;63021;52.836;6.376;2022-08-21T13:46:42;8.25;;;2.13;;
55455;SDS011;63021;52.836;6.376;2022-08-21T13:49:15;8.85;;;2.85;;
55455;SDS011;63021;52.836;6.376;2022-08-21T13:51:44;6.57;;;2.08;;
55455;SDS011;63021;52.836;6.376;2022-08-21T13:57:18;5.07;;;2.10;;
55455;SDS011;63021;52.836;6.376;2022-08-21T14:00:10;7.65;;;2.35;;
55455;SDS011;63021;52.836;6.376;2022-08-21T14:02:44;10.43;;;2.00;;
55455;SDS011;63021;52.836;6.376;2022-08-21T14:05:21;5.40;;;1.90;;
55455;SDS011;63021;52.836;6.376;2022-08-21T14:08:02;5.43;;;2.20;;
55455;SDS011;63021;52.836;6.376;2022-08-21T14:10:34;10.30;;;2.55;;
55455;SDS011;63021;52.836;6.376;2022-08-21T14:13:05;10.45;;;2.63;;
55455;SDS011;63021;52.836;6.376;2022-08-21T14:15:34;11.80;;;2.67;;
55455;SDS011;63021;52.836;6.376;2022-08-21T14:18:14;9.88;;;2.05;;
55455;SDS011;63021;52.836;6.376;2022-08-21T14:20:45;7.53;;;2.13;;
55455;SDS011;63021;52.836;6.376;2022-08-21T14:23:23;9.68;;;2.17;;
55455;SDS011;63021;52.836;6.376;2022-08-21T14:25:51;7.45;;;1.63;;
55455;SDS011;63021;52.836;6.376;2022-08-21T14:28:28;8.32;;;1.83;;
55455;SDS011;63021;52.836;6.376;2022-08-21T14:31:10;5.65;;;1.90;;
55455;SDS011;63021;52.836;6.376;2022-08-21T14:33:43;7.32;;;1.98;;
55455;SDS011;63021;52.836;6.376;2022-08-21T14:36:09;4.38;;;1.45;;
55455;SDS011;63021;52.836;6.376;2022-08-21T14:38:40;5.47;;;1.50;;
55455;SDS011;63021;52.836;6.376;2022-08-21T14:41:24;9.13;;;2.08;;
55455;SDS011;63021;52.836;6.376;2022-08-21T14:49:46;6.28;;;1.92;;
55455;SDS011;63021;52.836;6.376;2022-08-21T14:52:30;6.78;;;2.28;;
55455;SDS011;63021;52.836;6.376;2022-08-21T14:54:57;7.25;;;2.13;;
55455;SDS011;63021;52.836;6.376;2022-08-21T14:57:30;8.50;;;2.00;;
55455;SDS011;63021;52.836;6.376;2022-08-21T15:00:02;6.22;;;2.30;;
55455;SDS011;63021;52.836;6.376;2022-08-21T15:02:36;6.43;;;1.90;;
55455;SDS011;63021;52.836;6.376;2022-08-21T15:05:07;9.20;;;1.77;;
55455;SDS011;63021;52.836;6.376;2022-08-21T15:07:55;7.50;;;2.05;;
55455;SDS011;63021;52.836;6.376;2022-08-21T15:10:23;9.50;;;2.38;;
55455;SDS011;63021;52.836;6.376;2022-08-21T15:12:55;7.25;;;2.17;;
55455;SDS011;63021;52.836;6.376;2022-08-21T15:15:23;5.20;;;1.65;;
55455;SDS011;63021;52.836;6.376;2022-08-21T15:17:55;4.50;;;1.67;;
55455;SDS011;63021;52.836;6.376;2022-08-21T15:20:24;7.45;;;2.28;;
55455;SDS011;63021;52.836;6.376;2022-08-21T15:22:55;5.90;;;1.60;;
55455;SDS011;63021;52.836;6.376;2022-08-21T15:25:24;4.60;;;1.83;;
55455;SDS011;63021;52.836;6.376;2022-08-21T15:31:19;10.18;;;1.80;;
55455;SDS011;63021;52.836;6.376;2022-08-21T15:33:49;6.95;;;2.63;;
55455;SDS011;63021;52.836;6.376;2022-08-21T15:36:17;3.53;;;1.35;;
55455;SDS011;63021;52.836;6.376;2022-08-21T15:38:44;6.50;;;1.65;;
55455;SDS011;63021;52.836;6.376;2022-08-21T15:41:10;3.80;;;1.58;;
55455;SDS011;63021;52.836;6.376;2022-08-21T15:43:44;3.08;;;1.35;;
55455;SDS011;63021;52.836;6.376;2022-08-21T15:46:18;4.57;;;1.60;;
55455;SDS011;63021;52.836;6.376;2022-08-21T15:48:50;4.53;;;2.20;;
55455;SDS011;63021;52.836;6.376;2022-08-21T15:51:18;4.93;;;1.67;;
55455;SDS011;63021;52.836;6.376;2022-08-21T15:53:47;5.95;;;2.22;;
55455;SDS011;63021;52.836;6.376;2022-08-21T15:56:21;6.10;;;1.98;;
55455;SDS011;63021;52.836;6.376;2022-08-21T15:59:03;7.03;;;1.75;;
55455;SDS011;63021;52.836;6.376;2022-08-21T16:01:39;4.30;;;1.88;;
55455;SDS011;63021;52.836;6.376;2022-08-21T16:04:23;4.22;;;1.30;;
55455;SDS011;63021;52.836;6.376;2022-08-21T16:06:59;5.78;;;1.77;;
55455;SDS011;63021;52.836;6.376;2022-08-21T16:12:34;7.03;;;1.70;;
55455;SDS011;63021;52.836;6.376;2022-08-21T16:15:08;5.43;;;1.63;;
55455;SDS011;63021;52.836;6.376;2022-08-21T16:17:39;5.45;;;1.35;;
55455;SDS011;63021;52.836;6.376;2022-08-21T16:20:21;5.40;;;1.33;;
55455;SDS011;63021;52.836;6.376;2022-08-21T16:22:56;5.05;;;1.48;;
55455;SDS011;63021;52.836;6.376;2022-08-21T16:25:26;5.68;;;1.42;;
55455;SDS011;63021;52.836;6.376;2022-08-21T16:27:58;6.78;;;1.50;;
55455;SDS011;63021;52.836;6.376;2022-08-21T16:30:35;6.07;;;1.90;;
55455;SDS011;63021;52.836;6.376;2022-08-21T16:33:31;5.30;;;1.50;;
55455;SDS011;63021;52.836;6.376;2022-08-21T16:36:01;4.07;;;1.58;;
55455;SDS011;63021;52.836;6.376;2022-08-21T16:38:29;4.93;;;2.25;;
55455;SDS011;63021;52.836;6.376;2022-08-21T16:41:02;6.03;;;1.38;;
55455;SDS011;63021;52.836;6.376;2022-08-21T16:43:43;7.45;;;2.20;;
55455;SDS011;63021;52.836;6.376;2022-08-21T16:46:16;7.53;;;1.77;;
55455;SDS011;63021;52.836;6.376;2022-08-21T16:48:49;5.78;;;1.23;;
55455;SDS011;63021;52.836;6.376;2022-08-21T16:54:18;6.68;;;1.58;;
55455;SDS011;63021;52.836;6.376;2022-08-21T16:56:49;6.72;;;2.30;;
55455;SDS011;63021;52.836;6.376;2022-08-21T16:59:17;6.68;;;1.42;;
55455;SDS011;63021;52.836;6.376;2022-08-21T17:01:47;2.35;;;0.90;;
55455;SDS011;63021;52.836;6.376;2022-08-21T17:04:17;3.50;;;1.38;;
55455;SDS011;63021;52.836;6.376;2022-08-21T17:06:49;4.88;;;1.35;;
55455;SDS011;63021;52.836;6.376;2022-08-21T17:09:19;5.07;;;1.57;;
55455;SDS011;63021;52.836;6.376;2022-08-21T17:15:17;7.50;;;1.95;;
55455;SDS011;63021;52.836;6.376;2022-08-21T17:17:48;5.22;;;1.52;;
55455;SDS011;63021;52.836;6.376;2022-08-21T17:20:20;7.10;;;2.08;;
55455;SDS011;63021;52.836;6.376;2022-08-21T17:22:53;4.25;;;1.52;;
55455;SDS011;63021;52.836;6.376;2022-08-21T17:25:21;7.15;;;2.13;;
55455;SDS011;63021;52.836;6.376;2022-08-21T17:27:53;4.88;;;1.77;;
55455;SDS011;63021;52.836;6.376;2022-08-21T17:30:24;8.02;;;2.17;;
55455;SDS011;63021;52.836;6.376;2022-08-21T17:32:55;6.15;;;1.83;;
55455;SDS011;63021;52.836;6.376;2022-08-21T17:35:34;4.05;;;1.30;;
55455;SDS011;63021;52.836;6.376;2022-08-21T17:38:07;5.40;;;1.63;;
55455;SDS011;63021;52.836;6.376;2022-08-21T17:40:39;5.05;;;1.80;;